createdAt,value
2023-05-16T00:00:01.292Z,4.60
2023-05-16T00:02:33.039Z,4.80
2023-05-16T00:05:05.213Z,4.30
2023-05-16T00:07:37.009Z,4.90
2023-05-16T00:12:39.811Z,4.70
2023-05-16T00:15:14.178Z,5.00
2023-05-16T00:17:46.476Z,4.90
2023-05-16T00:20:23.373Z,3.90
2023-05-16T00:22:55.536Z,4.40
2023-05-16T00:25:27.236Z,4.20
2023-05-16T00:30:28.624Z,4.70
2023-05-16T00:33:00.379Z,4.20
2023-05-16T00:35:31.904Z,4.60
2023-05-16T00:38:03.238Z,3.90
2023-05-16T00:40:34.657Z,4.90
2023-05-16T00:43:06.665Z,3.70
2023-05-16T00:45:38.353Z,3.80
2023-05-16T00:50:41.127Z,4.90
2023-05-16T00:53:12.468Z,5.00
2023-05-16T00:55:44.148Z,4.00
2023-05-16T00:58:16.289Z,4.20
2023-05-16T01:00:48.901Z,4.50
2023-05-16T01:03:20.757Z,4.40
2023-05-16T01:05:52.166Z,4.80
2023-05-16T01:08:24.540Z,5.20
2023-05-16T01:11:04.211Z,5.80
2023-05-16T01:13:38.451Z,5.80
2023-05-16T01:16:14.910Z,5.20
2023-05-16T01:18:58.689Z,4.80
2023-05-16T01:21:36.335Z,5.40
2023-05-16T01:24:15.070Z,4.10
2023-05-16T01:26:46.721Z,5.00
2023-05-16T01:31:48.601Z,6.10
2023-05-16T01:34:20.117Z,4.80
2023-05-16T01:36:54.729Z,5.20
2023-05-16T01:39:33.762Z,4.50
2023-05-16T01:42:07.454Z,4.60
2023-05-16T01:44:42.973Z,4.70
2023-05-16T01:47:16.982Z,3.80
2023-05-16T01:49:52.080Z,4.50
2023-05-16T01:52:27.846Z,4.30
2023-05-16T01:54:59.484Z,4.00
2023-05-16T01:57:32.050Z,4.00
2023-05-16T02:00:03.561Z,3.60
2023-05-16T02:02:36.221Z,4.80
2023-05-16T02:05:08.560Z,4.90
2023-05-16T02:07:41.456Z,4.80
2023-05-16T02:12:43.980Z,4.90
2023-05-16T02:15:15.528Z,5.00
2023-05-16T02:17:47.685Z,5.10
2023-05-16T02:20:20.304Z,5.00
2023-05-16T02:22:51.808Z,3.80
2023-05-16T02:25:23.370Z,4.40
2023-05-16T02:27:54.820Z,4.40
2023-05-16T02:30:26.472Z,4.00
2023-05-16T02:32:58.098Z,4.20
2023-05-16T02:35:29.686Z,4.90
2023-05-16T02:40:31.637Z,4.30
2023-05-16T02:43:03.271Z,4.80
2023-05-16T02:45:35.354Z,4.00
2023-05-16T02:48:07.231Z,4.50
2023-05-16T02:50:40.600Z,4.40
2023-05-16T02:53:12.162Z,4.50
2023-05-16T02:55:43.601Z,5.10
2023-05-16T02:58:14.998Z,4.80
2023-05-16T03:00:46.398Z,4.90
2023-05-16T03:03:18.084Z,5.10
2023-05-16T03:08:20.451Z,5.20
2023-05-16T03:10:51.957Z,5.00
2023-05-16T03:13:23.676Z,4.90
2023-05-16T03:15:55.004Z,5.30
2023-05-16T03:18:26.431Z,4.60
2023-05-16T03:20:58.411Z,4.60
2023-05-16T03:23:29.918Z,4.80
2023-05-16T03:26:01.391Z,4.70
2023-05-16T03:28:32.839Z,5.30
2023-05-16T03:31:04.426Z,4.90
2023-05-16T03:33:35.986Z,5.20
2023-05-16T03:36:07.723Z,5.80
2023-05-16T03:41:09.319Z,5.90
2023-05-16T03:46:11.072Z,5.00
2023-05-16T03:51:12.412Z,5.70
2023-05-16T03:56:14.362Z,5.70
2023-05-16T03:58:45.908Z,5.30
2023-05-16T04:01:17.464Z,6.20
2023-05-16T04:03:48.818Z,6.20
2023-05-16T04:06:20.265Z,6.40
2023-05-16T04:08:51.725Z,6.60
2023-05-16T04:11:23.043Z,8.50
2023-05-16T04:13:55.392Z,10.20
2023-05-16T04:16:26.837Z,12.10
2023-05-16T04:18:59.699Z,13.40
2023-05-16T04:21:31.201Z,12.70
2023-05-16T04:24:02.733Z,9.80
2023-05-16T04:26:34.831Z,9.60
2023-05-16T04:29:06.227Z,8.70
2023-05-16T04:31:37.940Z,8.40
2023-05-16T04:36:39.150Z,7.70
2023-05-16T04:39:10.674Z,7.40
2023-05-16T04:41:42.731Z,8.50
2023-05-16T04:44:14.062Z,8.00
2023-05-16T04:46:45.464Z,7.80
2023-05-16T04:49:16.925Z,7.30
2023-05-16T04:51:48.492Z,7.70
2023-05-16T04:54:20.430Z,7.10
2023-05-16T04:56:51.858Z,8.60
2023-05-16T04:59:23.262Z,7.10
2023-05-16T05:01:54.925Z,7.80
2023-05-16T05:06:56.966Z,6.10
2023-05-16T05:09:28.352Z,6.00
2023-05-16T05:11:59.900Z,6.30
2023-05-16T05:14:31.716Z,7.00
2023-05-16T05:17:03.498Z,6.30
2023-05-16T05:19:35.223Z,6.70
2023-05-16T05:22:07.233Z,6.40
2023-05-16T05:24:38.788Z,5.60
2023-05-16T05:29:41.644Z,5.90
2023-05-16T05:32:13.283Z,5.40
2023-05-16T05:34:45.270Z,5.60
2023-05-16T05:37:16.829Z,6.10
2023-05-16T05:39:48.513Z,5.10
2023-05-16T05:42:20.092Z,5.00
2023-05-16T05:44:51.681Z,5.30
2023-05-16T05:47:23.303Z,4.90
2023-05-16T05:49:55.037Z,4.80
2023-05-16T05:54:56.624Z,4.10
2023-05-16T05:57:28.485Z,5.30
2023-05-16T06:00:00.383Z,4.50
2023-05-16T06:02:32.214Z,4.80
2023-05-16T06:05:04.387Z,4.20
2023-05-16T06:07:36.123Z,5.60
2023-05-16T06:10:09.284Z,5.20
2023-05-16T06:12:40.988Z,6.40
2023-05-16T06:15:14.406Z,6.50
2023-05-16T06:17:46.207Z,7.10
2023-05-16T06:20:18.297Z,7.60
2023-05-16T06:22:49.914Z,7.30
2023-05-16T06:25:21.799Z,7.80
2023-05-16T06:27:53.854Z,7.80
2023-05-16T06:30:25.585Z,6.90
2023-05-16T06:35:27.214Z,6.80
2023-05-16T06:37:59.365Z,7.50
2023-05-16T06:40:30.745Z,4.70
2023-05-16T06:43:02.806Z,5.90
2023-05-16T06:45:34.308Z,6.40
2023-05-16T06:48:05.907Z,6.10
2023-05-16T06:50:38.131Z,5.40
2023-05-16T06:53:12.747Z,5.00
2023-05-16T06:55:44.996Z,5.60
2023-05-16T06:58:16.656Z,6.40
2023-05-16T07:03:19.079Z,6.00
2023-05-16T07:05:53.202Z,5.70
2023-05-16T07:08:26.192Z,5.80
2023-05-16T07:10:57.735Z,4.90
2023-05-16T07:16:00.727Z,4.80
2023-05-16T07:18:32.369Z,5.60
2023-05-16T07:21:04.042Z,4.40
2023-05-16T07:23:35.935Z,5.40
2023-05-16T07:26:07.648Z,4.70
2023-05-16T07:28:39.223Z,5.30
2023-05-16T07:31:10.697Z,4.30
2023-05-16T07:33:42.438Z,4.30
2023-05-16T07:36:17.254Z,4.10
2023-05-16T07:38:49.477Z,4.80
2023-05-16T07:41:22.001Z,3.70
2023-05-16T07:43:53.595Z,3.40
2023-05-16T07:48:55.061Z,3.30
2023-05-16T07:53:56.370Z,3.20
2023-05-16T07:56:28.147Z,4.20
2023-05-16T08:01:29.727Z,3.70
2023-05-16T08:04:01.359Z,3.50
2023-05-16T08:06:34.319Z,3.40
2023-05-16T08:09:06.184Z,3.20
2023-05-16T08:11:37.713Z,3.60
2023-05-16T08:16:39.118Z,4.20
2023-05-16T08:19:11.026Z,3.70
2023-05-16T08:21:42.621Z,4.00
2023-05-16T08:24:14.825Z,3.10
2023-05-16T08:26:47.593Z,3.40
2023-05-16T08:31:50.038Z,3.10
2023-05-16T08:34:22.152Z,3.00
2023-05-16T08:36:54.940Z,3.30
2023-05-16T08:39:27.291Z,2.80
2023-05-16T08:41:59.234Z,3.10
2023-05-16T08:44:31.605Z,3.60
2023-05-16T08:47:09.292Z,3.20
2023-05-16T08:49:42.095Z,3.50
2023-05-16T08:52:13.724Z,2.90
2023-05-16T08:54:48.527Z,2.70
2023-05-16T08:57:24.372Z,2.80
2023-05-16T08:59:59.260Z,3.10
2023-05-16T09:02:31.205Z,3.10
2023-05-16T09:05:02.982Z,3.50
2023-05-16T09:07:34.793Z,3.20
2023-05-16T09:10:07.370Z,2.60
2023-05-16T09:12:38.834Z,3.50
2023-05-16T09:15:12.041Z,2.80
2023-05-16T09:17:46.939Z,2.60
2023-05-16T09:20:20.482Z,2.30
2023-05-16T09:22:56.355Z,2.30
2023-05-16T09:25:32.587Z,2.20
2023-05-16T09:28:04.336Z,2.60
2023-05-16T09:30:37.408Z,2.40
2023-05-16T09:33:09.789Z,2.70
2023-05-16T09:35:45.384Z,2.50
2023-05-16T09:38:20.756Z,2.10
2023-05-16T09:40:53.172Z,2.20
2023-05-16T09:43:26.553Z,2.40
2023-05-16T09:46:00.578Z,2.70
2023-05-16T09:48:32.119Z,2.40
2023-05-16T09:53:36.332Z,2.30
2023-05-16T09:56:09.138Z,3.40
2023-05-16T09:58:41.731Z,2.10
2023-05-16T10:01:13.453Z,2.00
2023-05-16T10:03:45.345Z,2.60
2023-05-16T10:06:17.404Z,2.50
2023-05-16T10:08:48.935Z,2.70
2023-05-16T10:11:20.559Z,2.70
2023-05-16T10:13:53.604Z,2.20
2023-05-16T10:16:25.585Z,2.20
2023-05-16T10:18:57.467Z,2.40
2023-05-16T10:21:29.951Z,2.30
2023-05-16T10:24:03.552Z,2.10
2023-05-16T10:26:35.459Z,2.10
2023-05-16T10:29:07.713Z,2.30
2023-05-16T10:31:39.135Z,2.30
2023-05-16T10:36:40.846Z,2.10
2023-05-16T10:39:12.804Z,2.40
2023-05-16T10:41:44.913Z,2.40
2023-05-16T10:44:17.748Z,2.40
2023-05-16T10:46:49.897Z,2.70
2023-05-16T10:49:25.552Z,2.30
2023-05-16T10:52:11.029Z,2.30
2023-05-16T10:54:44.080Z,2.20
2023-05-16T10:57:17.905Z,2.60
2023-05-16T10:59:50.213Z,2.60
2023-05-16T11:02:29.737Z,2.40
2023-05-16T11:05:02.163Z,2.10
2023-05-16T11:07:36.336Z,2.60
2023-05-16T11:10:10.279Z,2.70
2023-05-16T11:12:46.708Z,2.20
2023-05-16T11:15:27.368Z,2.50
2023-05-16T11:18:09.996Z,3.10
2023-05-16T11:20:41.646Z,2.80
2023-05-16T11:23:27.933Z,2.10
2023-05-16T11:26:00.918Z,3.00
2023-05-16T11:28:32.628Z,2.70
2023-05-16T11:31:05.713Z,2.70
2023-05-16T11:33:37.896Z,2.20
2023-05-16T11:38:45.086Z,2.80
2023-05-16T11:41:18.030Z,2.50
2023-05-16T11:43:49.719Z,2.90
2023-05-16T11:46:21.251Z,2.50
2023-05-16T11:48:53.471Z,2.80
2023-05-16T11:51:25.268Z,3.10
2023-05-16T11:53:57.991Z,2.80
2023-05-16T11:56:29.508Z,3.20
2023-05-16T12:01:38.734Z,2.80
2023-05-16T12:04:13.915Z,2.70
2023-05-16T12:06:45.817Z,3.20
2023-05-16T12:09:18.622Z,3.30
2023-05-16T12:11:50.889Z,3.10
2023-05-16T12:14:22.778Z,3.60
2023-05-16T12:16:55.618Z,4.10
2023-05-16T12:19:27.542Z,3.50
2023-05-16T12:21:59.813Z,2.90
2023-05-16T12:24:34.940Z,3.40
2023-05-16T12:27:07.042Z,3.20
2023-05-16T12:29:38.602Z,3.40
2023-05-16T12:34:42.788Z,3.70
2023-05-16T12:37:14.295Z,3.10
2023-05-16T12:42:17.144Z,3.00
2023-05-16T12:44:49.575Z,2.50
2023-05-16T12:47:22.283Z,2.90
2023-05-16T12:49:54.662Z,3.10
2023-05-16T12:52:27.243Z,3.50
2023-05-16T12:54:58.739Z,2.30
2023-05-16T13:00:01.033Z,2.90
2023-05-16T13:02:33.166Z,3.10
2023-05-16T13:05:04.889Z,3.00
2023-05-16T13:10:10.537Z,2.80
2023-05-16T13:12:42.422Z,2.20
2023-05-16T13:15:15.370Z,2.70
2023-05-16T13:17:48.524Z,2.50
2023-05-16T13:20:21.572Z,2.40
2023-05-16T13:22:53.048Z,2.90
2023-05-16T13:25:24.828Z,2.40
2023-05-16T13:27:56.285Z,2.30
2023-05-16T13:30:29.264Z,2.70
2023-05-16T13:33:01.164Z,3.10
2023-05-16T13:35:32.989Z,2.90
2023-05-16T13:38:05.237Z,3.00
2023-05-16T13:40:37.072Z,3.40
2023-05-16T13:43:08.551Z,2.80
2023-05-16T13:45:40.105Z,2.90
2023-05-16T13:50:44.174Z,2.80
2023-05-16T13:53:16.146Z,3.00
2023-05-16T13:55:47.648Z,3.30
2023-05-16T14:00:49.279Z,3.60
2023-05-16T14:03:21.219Z,4.60
2023-05-16T14:05:53.006Z,3.70
2023-05-16T14:08:24.412Z,3.50
2023-05-16T14:10:55.855Z,4.10
2023-05-16T14:13:27.319Z,4.00
2023-05-16T14:15:58.768Z,3.50
2023-05-16T14:18:30.986Z,3.90
2023-05-16T14:21:02.506Z,3.70
2023-05-16T14:23:33.833Z,4.10
2023-05-16T14:26:07.524Z,3.50
2023-05-16T14:28:39.723Z,4.70
2023-05-16T14:31:11.773Z,4.20
2023-05-16T14:33:44.244Z,6.40
2023-05-16T14:36:16.619Z,6.80
2023-05-16T14:38:49.438Z,6.60
2023-05-16T14:41:21.281Z,6.00
2023-05-16T14:43:52.825Z,5.10
2023-05-16T14:48:54.707Z,6.10
2023-05-16T14:51:26.130Z,5.20
2023-05-16T14:56:28.462Z,5.30
2023-05-16T14:59:00.621Z,5.70
2023-05-16T15:01:32.254Z,4.80
2023-05-16T15:04:03.873Z,4.10
2023-05-16T15:09:06.175Z,4.80
2023-05-16T15:11:37.742Z,4.60
2023-05-16T15:14:09.297Z,5.10
2023-05-16T15:16:41.053Z,5.50
2023-05-16T15:19:12.728Z,4.40
2023-05-16T15:24:14.751Z,4.60
2023-05-16T15:26:46.408Z,6.70
2023-05-16T15:31:49.520Z,6.10
2023-05-16T15:34:21.252Z,6.70
2023-05-16T15:39:22.530Z,5.60
2023-05-16T15:42:08.572Z,5.10
2023-05-16T15:44:41.873Z,5.20
2023-05-16T15:49:43.792Z,4.20
2023-05-16T15:54:45.706Z,4.30
2023-05-16T15:57:17.382Z,4.40
2023-05-16T16:02:19.118Z,4.30
2023-05-16T16:07:21.340Z,4.80
2023-05-16T16:09:52.829Z,4.60
2023-05-16T16:12:24.315Z,6.30
2023-05-16T16:14:56.286Z,8.50
2023-05-16T16:17:28.290Z,9.70
2023-05-16T16:19:59.710Z,8.40
2023-05-16T16:22:31.343Z,7.40
2023-05-16T16:25:03.894Z,5.60
2023-05-16T16:27:35.360Z,5.90
2023-05-16T16:30:08.722Z,4.40
2023-05-16T16:32:40.420Z,4.40
2023-05-16T16:37:48.732Z,4.70
2023-05-16T16:40:26.340Z,5.10
2023-05-16T16:43:01.547Z,4.60
2023-05-16T16:45:33.453Z,4.50
2023-05-16T16:48:05.906Z,4.20
2023-05-16T16:50:37.593Z,4.30
2023-05-16T16:53:09.026Z,4.20
2023-05-16T16:55:41.130Z,4.80
2023-05-16T16:58:12.699Z,4.40
2023-05-16T17:00:44.814Z,4.70
2023-05-16T17:03:16.398Z,4.50
2023-05-16T17:08:20.065Z,4.50
2023-05-16T17:10:52.003Z,4.40
2023-05-16T17:13:23.771Z,4.10
2023-05-16T17:15:55.152Z,4.60
2023-05-16T17:18:26.914Z,3.90
2023-05-16T17:20:58.454Z,4.10
2023-05-16T17:25:59.915Z,4.00
2023-05-16T17:28:32.738Z,4.60
2023-05-16T17:31:04.463Z,4.30
2023-05-16T17:33:35.919Z,3.70
2023-05-16T17:36:08.467Z,4.20
2023-05-16T17:38:39.918Z,4.30
2023-05-16T17:41:11.483Z,3.70
2023-05-16T17:46:16.927Z,4.00
2023-05-16T17:48:48.445Z,4.90
2023-05-16T17:51:19.983Z,4.60
2023-05-16T17:53:51.662Z,3.00
2023-05-16T17:58:53.641Z,3.40
2023-05-16T18:01:25.219Z,3.80
2023-05-16T18:06:27.135Z,3.40
2023-05-16T18:08:58.918Z,3.50
2023-05-16T18:11:30.787Z,3.60
2023-05-16T18:16:33.285Z,3.30
2023-05-16T18:19:05.722Z,3.90
2023-05-16T18:21:38.683Z,3.80
2023-05-16T18:24:13.406Z,3.20
2023-05-16T18:26:48.702Z,3.80
2023-05-16T18:29:20.480Z,3.20
2023-05-16T18:31:52.107Z,3.40
2023-05-16T18:34:23.621Z,3.90
2023-05-16T18:36:57.677Z,3.90
2023-05-16T18:39:29.244Z,3.90
2023-05-16T18:44:30.730Z,3.90
2023-05-16T18:47:02.378Z,3.90
2023-05-16T18:54:35.983Z,3.60
2023-05-16T18:57:08.443Z,4.30
2023-05-16T18:59:39.909Z,3.80
2023-05-16T19:02:11.645Z,3.40
2023-05-16T19:07:13.206Z,3.70
2023-05-16T19:12:14.760Z,3.50
2023-05-16T19:14:46.552Z,3.60
2023-05-16T19:17:18.152Z,4.00
2023-05-16T19:22:19.627Z,3.90
2023-05-16T19:24:51.809Z,3.60
2023-05-16T19:27:23.655Z,3.90
2023-05-16T19:29:55.048Z,3.10
2023-05-16T19:32:26.611Z,3.60
2023-05-16T19:37:29.265Z,3.30
2023-05-16T19:40:00.790Z,3.70
2023-05-16T19:42:32.835Z,3.20
2023-05-16T19:45:04.975Z,3.30
2023-05-16T19:47:37.518Z,4.30
2023-05-16T19:50:11.325Z,3.20
2023-05-16T19:52:43.058Z,3.20
2023-05-16T19:57:44.549Z,3.40
2023-05-16T20:00:17.830Z,3.50
2023-05-16T20:02:49.334Z,3.70
2023-05-16T20:07:56.566Z,2.90
2023-05-16T20:10:28.624Z,3.60
2023-05-16T20:13:00.237Z,3.70
2023-05-16T20:18:03.613Z,3.80
2023-05-16T20:20:35.676Z,3.70
2023-05-16T20:23:07.851Z,3.90
2023-05-16T20:25:40.306Z,3.50
2023-05-16T20:28:12.117Z,3.00
2023-05-16T20:33:13.562Z,3.60
2023-05-16T20:38:15.133Z,3.70
2023-05-16T20:43:16.491Z,3.20
2023-05-16T20:45:48.061Z,3.50
2023-05-16T20:48:19.996Z,3.90
2023-05-16T20:50:51.912Z,2.70
2023-05-16T20:53:23.498Z,3.50
2023-05-16T20:58:25.111Z,3.20
2023-05-16T21:03:27.494Z,3.40
2023-05-16T21:05:59.401Z,4.00
2023-05-16T21:08:31.539Z,3.20
2023-05-16T21:11:03.948Z,3.20
2023-05-16T21:16:05.838Z,3.20
2023-05-16T21:18:37.579Z,3.40
2023-05-16T21:21:09.542Z,2.90
2023-05-16T21:23:41.784Z,3.40
2023-05-16T21:26:13.341Z,3.70
2023-05-16T21:28:54.414Z,3.40
2023-05-16T21:31:26.880Z,3.20
2023-05-16T21:33:58.624Z,3.30
2023-05-16T21:36:30.154Z,3.50
2023-05-16T21:39:02.083Z,3.50
2023-05-16T21:41:34.382Z,3.30
2023-05-16T21:44:06.544Z,3.50
2023-05-16T21:46:37.929Z,3.40
2023-05-16T21:49:09.659Z,3.40
2023-05-16T21:51:41.301Z,3.80
2023-05-16T21:54:13.214Z,3.90
2023-05-16T21:56:44.865Z,4.60
2023-05-16T21:59:16.480Z,3.50
2023-05-16T22:01:48.640Z,3.90
2023-05-16T22:04:20.508Z,3.70
2023-05-16T22:06:52.292Z,3.30
2023-05-16T22:09:24.079Z,3.80
2023-05-16T22:11:56.076Z,3.80
2023-05-16T22:14:27.822Z,3.30
2023-05-16T22:16:59.315Z,4.10
2023-05-16T22:19:31.049Z,4.00
2023-05-16T22:24:32.712Z,3.90
2023-05-16T22:27:04.399Z,4.40
2023-05-16T22:32:10.992Z,4.70
2023-05-16T22:34:42.786Z,4.60
2023-05-16T22:37:14.266Z,5.60
2023-05-16T22:39:45.846Z,8.20
2023-05-16T22:42:17.643Z,10.40
2023-05-16T22:44:49.108Z,11.90
2023-05-16T22:47:21.267Z,13.20
2023-05-16T22:49:52.780Z,14.20
2023-05-16T22:52:24.172Z,16.00
2023-05-16T22:54:55.677Z,16.10
2023-05-16T22:57:27.419Z,17.30
2023-05-16T23:00:00.460Z,15.20
2023-05-16T23:02:32.060Z,18.60
2023-05-16T23:07:33.767Z,19.50
2023-05-16T23:12:36.039Z,18.30
2023-05-16T23:17:42.240Z,18.00
2023-05-16T23:20:14.593Z,14.10
2023-05-16T23:22:46.153Z,10.30
2023-05-16T23:25:17.587Z,10.40
2023-05-16T23:27:49.484Z,8.00
2023-05-16T23:30:21.272Z,6.90
2023-05-16T23:32:53.668Z,5.60
2023-05-16T23:35:25.835Z,5.10
2023-05-16T23:37:57.639Z,5.40
2023-05-16T23:40:29.421Z,5.50
2023-05-16T23:45:31.135Z,4.70
2023-05-16T23:48:03.011Z,5.70
2023-05-16T23:50:37.499Z,5.10
2023-05-16T23:53:08.936Z,4.90
2023-05-16T23:55:40.563Z,5.50
2023-05-16T23:58:12.133Z,5.40
